Time;durP1;ratioP1;P1;durP2;ratioP2;P2;SDS_P1;SDS_P2;PMS_P1;PMS_P2;Temp;Humidity;BMP_temperature;BMP_pressure;BME280_temperature;BME280_humidity;BME280_pressure;Samples;Min_cycle;Max_cycle;Signal;HPM_P1;HPM_P2
2022/10/28 00:00:00;;;;;;;35.40;16.08;;;;;;;21.81;63.68;101686.16;20977370;28;20044;-77
2022/10/28 00:10:01;;;;;;;32.80;15.40;;;;;;;21.79;63.90;101680.13;20974945;28;20055;-77
2022/10/28 00:20:02;;;;;;;31.15;14.23;;;;;;;21.80;63.73;101682.69;20976158;28;20040;-77
2022/10/28 00:30:03;;;;;;;28.35;13.60;;;;;;;21.78;63.68;101681.91;20971330;28;20453;-77
2022/10/28 00:40:04;;;;;;;27.90;13.73;;;;;;;21.80;63.52;101684.47;20975237;28;20036;-77
2022/10/28 00:50:10;;;;;;;27.27;13.25;;;;;;;21.81;62.94;101673.81;20974421;28;20045;-77
2022/10/28 01:00:11;;;;;;;26.08;13.30;;;;;;;21.82;63.10;101672.03;20971994;28;20032;-77
2022/10/28 01:10:13;;;;;;;22.13;12.50;;;;;;;21.80;62.89;101671.28;20978627;28;20048;-77
2022/10/28 01:20:49;;;;;;;21.90;12.47;;;;;;;21.82;62.92;101669.41;20967080;28;20144;-77
2022/10/28 01:31:13;;;;;;;26.10;11.80;;;;;;;21.80;63.02;101653.69;20968424;28;20052;-78
2022/10/28 01:41:54;;;;;;;24.00;11.45;;;;;;;21.78;62.83;101657.34;20983489;28;20205;-77
2022/10/28 01:52:00;;;;;;;20.92;10.75;;;;;;;21.78;62.85;101650.28;20940215;28;20079;-78
2022/10/28 02:02:01;;;;;;;24.67;11.27;;;;;;;21.78;62.95;101652.09;20983032;28;20465;-77
2022/10/28 02:12:13;;;;;;;18.95;10.25;;;;;;;21.77;62.40;101645.94;20997134;28;20033;-77
2022/10/28 02:22:36;;;;;;;17.52;10.20;;;;;;;21.77;62.31;101653.84;20986268;28;20029;-77
2022/10/28 02:32:39;;;;;;;18.25;10.38;;;;;;;;;;20981748;28;20049;-78
2022/10/28 02:42:48;;;;;;;20.88;10.93;;;;;;;21.74;62.56;101651.41;20991988;28;20036;-77
2022/10/28 02:52:52;;;;;;;17.88;10.20;;;;;;;21.69;62.81;101635.88;20980812;28;20047;-77
2022/10/28 03:02:52;;;;;;;17.73;9.55;;;;;;;21.72;62.53;101642.75;20974388;28;20052;-77
2022/10/28 03:12:53;;;;;;;17.40;10.00;;;;;;;21.73;62.38;101647.06;20964336;28;20078;-76
2022/10/28 03:22:53;;;;;;;14.60;8.85;;;;;;;21.70;62.33;101642.84;20979985;28;20040;-77
2022/10/28 03:32:54;;;;;;;16.67;10.00;;;;;;;21.71;62.08;101644.50;20976625;28;20040;-77
2022/10/28 03:42:54;;;;;;;14.15;8.77;;;;;;;21.68;62.33;101643.84;20989831;28;20067;-76
2022/10/28 03:52:54;;;;;;;12.55;8.23;;;;;;;21.67;62.02;101640.38;20976688;28;20049;-77
2022/10/28 04:02:55;;;;;;;16.00;9.02;;;;;;;21.67;62.08;101643.00;20969661;28;20048;-76
2022/10/28 04:13:04;;;;;;;14.30;8.35;;;;;;;21.70;61.78;101652.53;20965244;28;20127;-75
2022/10/28 04:23:04;;;;;;;14.27;8.02;;;;;;;21.74;62.57;101631.16;20967958;28;20119;-76
2022/10/28 04:33:04;;;;;;;16.15;8.63;;;;;;;21.83;64.17;101613.94;20949629;28;20049;-77
2022/10/28 04:43:05;;;;;;;15.07;7.90;;;;;;;21.89;64.35;101612.72;20952563;28;20036;-77
2022/10/28 04:53:05;;;;;;;13.15;7.45;;;;;;;21.95;64.69;101608.84;20965807;28;20041;-78
2022/10/28 05:03:06;;;;;;;11.23;6.93;;;;;;;22.00;64.68;101601.50;20946779;28;20055;-77
2022/10/28 05:13:06;;;;;;;14.23;7.60;;;;;;;22.04;64.43;101610.91;20961520;28;20044;-77
2022/10/28 05:23:06;;;;;;;13.48;7.88;;;;;;;22.07;63.82;101608.94;20964137;27;21869;-79
2022/10/28 05:33:07;;;;;;;12.02;7.57;;;;;;;22.11;63.71;101612.25;20964366;27;20105;-77
2022/10/28 05:43:08;;;;;;;13.27;7.72;;;;;;;22.11;63.47;101621.97;20971171;28;20036;-77
2022/10/28 05:53:09;;;;;;;12.88;7.50;;;;;;;22.12;63.31;101640.31;20971642;28;21793;-78
2022/10/28 06:03:11;;;;;;;11.75;6.78;;;;;;;22.11;63.05;101643.91;20966490;28;20481;-77
2022/10/28 06:13:11;;;;;;;11.20;7.07;;;;;;;22.14;62.80;101653.41;20969167;28;20875;-77
2022/10/28 06:23:12;;;;;;;13.85;7.28;;;;;;;22.16;62.85;101646.25;20985036;28;20032;-78
2022/10/28 06:33:12;;;;;;;12.20;6.85;;;;;;;22.15;62.81;101649.84;20950369;28;20060;-76
2022/10/28 06:43:13;;;;;;;9.98;6.05;;;;;;;22.19;62.88;101654.84;20963882;28;20043;-77
2022/10/28 06:53:13;;;;;;;11.32;5.82;;;;;;;22.15;60.74;101660.38;20968404;28;21484;-79
2022/10/28 07:03:14;;;;;;;10.30;5.95;;;;;;;22.18;61.63;101674.22;20968630;28;20051;-77
2022/10/28 07:13:14;;;;;;;13.07;6.38;;;;;;;22.18;61.94;101676.00;20972163;28;20070;-77
2022/10/28 07:23:15;;;;;;;9.18;5.78;;;;;;;22.19;61.71;101668.03;20975675;28;20419;-77
2022/10/28 07:33:16;;;;;;;9.95;6.03;;;;;;;22.20;62.11;101666.22;20975364;28;20040;-77
2022/10/28 07:43:16;;;;;;;10.65;5.72;;;;;;;22.22;61.72;101673.09;20969686;28;20044;-76
2022/10/28 07:53:16;;;;;;;10.68;6.10;;;;;;;22.21;61.88;101687.22;20975799;28;20040;-78
2022/10/28 08:03:17;;;;;;;9.15;5.50;;;;;;;22.23;61.82;101677.44;20969038;28;20040;-78
2022/10/28 08:13:17;;;;;;;10.68;5.32;;;;;;;22.22;62.09;101667.81;20966571;28;20040;-78
2022/10/28 08:23:17;;;;;;;8.77;5.18;;;;;;;22.23;61.86;101658.97;20969813;28;20063;-78
2022/10/28 08:33:18;;;;;;;10.07;5.50;;;;;;;22.21;62.24;101655.56;20979391;28;20049;-79
2022/10/28 08:43:24;;;;;;;11.85;5.32;;;;;;;22.22;62.05;101678.38;20969201;28;20044;-78
2022/10/28 08:53:31;;;;;;;9.02;5.60;;;;;;;22.21;62.36;101686.38;20990722;28;20076;-80
2022/10/28 09:03:38;;;;;;;7.72;4.80;;;;;;;22.22;61.99;101683.66;20987358;28;20066;-79
2022/10/28 09:13:50;;;;;;;7.45;5.00;;;;;;;22.24;62.20;101699.41;20997765;28;20036;-79
2022/10/28 09:23:57;;;;;;;9.07;5.00;;;;;;;22.21;61.88;101687.22;20969342;28;20043;-80
2022/10/28 09:34:40;;;;;;;7.68;4.60;;;;;;;22.17;61.92;101683.09;20981087;28;20055;-81
2022/10/28 09:44:44;;;;;;;;;;;;;;;22.18;62.24;101697.13;20961721;28;20059;-82
2022/10/28 09:54:51;;;;;;;9.50;4.93;;;;;;;22.17;62.24;101684.88;20980130;28;20401;-81
2022/10/28 10:04:52;;;;;;;6.40;4.15;;;;;;;22.18;62.24;101681.28;20971939;28;20097;-81
2022/10/28 10:14:56;;;;;;;7.63;4.88;;;;;;;22.18;61.92;101678.66;20971177;28;20063;-80
2022/10/28 10:24:57;;;;;;;7.10;5.15;;;;;;;22.15;62.08;101682.31;20957511;28;20036;-81
2022/10/28 10:35:16;;;;;;;8.40;4.90;;;;;;;22.17;61.71;101683.09;20970093;28;20644;-80
2022/10/28 10:45:26;;;;;;;9.07;5.07;;;;;;;22.18;61.92;101686.56;20971774;28;20312;-80
2022/10/28 10:55:32;;;;;;;9.20;5.93;;;;;;;22.17;62.10;101661.97;20975256;28;20047;-80
2022/10/28 11:05:33;;;;;;;64.00;24.73;;;;;;;22.20;62.26;101661.81;20983647;28;20052;-80
2022/10/28 11:15:33;;;;;;;54.08;23.27;;;;;;;22.20;62.03;101660.94;20964814;28;20044;-79
2022/10/28 11:25:44;;;;;;;52.83;23.27;;;;;;;22.22;62.42;101662.53;20967281;28;20048;-81
2022/10/28 11:36:12;;;;;;;47.70;21.95;;;;;;;22.23;62.40;101653.69;20989886;28;20032;-80
2022/10/28 11:46:28;;;;;;;47.13;21.35;;;;;;;22.23;61.92;101640.50;20989095;28;20078;-82
2022/10/28 11:56:58;;;;;;;52.92;20.42;;;;;;;22.23;62.07;101629.94;20984422;28;20048;-84
2022/10/28 12:07:22;;;;;;;43.58;19.75;;;;;;;22.24;61.80;101622.88;20980278;28;20432;-81
2022/10/28 12:17:29;;;;;;;36.67;18.13;;;;;;;22.22;61.86;101612.41;20973077;28;20113;-81
2022/10/28 12:27:36;;;;;;;38.72;17.67;;;;;;;22.20;61.66;101601.13;20966165;28;20052;-82
2022/10/28 12:37:49;;;;;;;39.58;17.25;;;;;;;22.20;61.28;101600.25;20974702;28;21252;-82
2022/10/28 12:48:20;;;;;;;31.23;15.98;;;;;;;22.21;61.28;101591.41;20959287;28;20063;-79
2022/10/28 12:58:28;;;;;;;34.53;15.63;;;;;;;22.18;61.23;101599.50;20957882;28;20868;-77
2022/10/28 13:08:51;;;;;;;30.48;14.48;;;;;;;22.17;61.28;101572.28;20966475;28;20047;-79
2022/10/28 13:19:14;;;;;;;28.92;13.52;;;;;;;22.17;61.11;101574.09;20992541;28;20436;-78
2022/10/28 13:29:24;;;;;;;31.10;13.80;;;;;;;22.18;61.47;101586.31;20987300;28;20133;-80
2022/10/28 13:39:41;;;;;;;23.63;13.05;;;;;;;22.16;61.44;101577.66;21037036;28;20036;-81
2022/10/28 13:50:09;;;;;;;25.27;13.23;;;;;;;22.15;61.46;101589.16;21026499;28;20045;-80
2022/10/28 14:00:17;;;;;;;30.17;12.30;;;;;;;22.14;61.48;101580.41;21006271;28;20130;-78
2022/10/28 14:10:22;;;;;;;27.35;12.75;;;;;;;22.14;61.74;101587.47;20993111;28;20047;-78
2022/10/28 14:20:25;;;;;;;28.00;12.05;;;;;;;22.18;62.10;101583.66;20992034;28;20032;-77
2022/10/28 14:30:25;;;;;;;20.85;11.00;;;;;;;22.19;62.32;101583.59;20990163;28;20033;-79
2022/10/28 14:41:01;;;;;;;21.95;10.98;;;;;;;22.22;62.14;101583.38;20999183;28;20426;-77
2022/10/28 14:51:03;;;;;;;18.10;10.65;;;;;;;22.25;62.20;101577.06;20996331;28;20532;-80
2022/10/28 15:01:06;;;;;;;20.42;10.55;;;;;;;22.31;62.01;101560.84;21005523;28;20028;-79
2022/10/28 15:11:07;;;;;;;20.40;10.45;;;;;;;22.34;61.98;101565.09;20993818;28;20434;-80
2022/10/28 15:21:10;;;;;;;21.73;10.38;;;;;;;22.37;61.89;101549.94;20955634;28;20036;-76
2022/10/28 15:31:10;;;;;;;17.23;9.02;;;;;;;22.43;61.98;101542.59;20978249;28;20039;-76
2022/10/28 15:41:21;;;;;;;16.33;9.30;;;;;;;22.46;61.46;101537.09;20977473;28;20514;-75
2022/10/28 15:51:21;;;;;;;17.15;9.23;;;;;;;22.44;61.80;101537.19;20992386;28;20209;-76
2022/10/28 16:01:34;;;;;;;18.50;9.95;;;;;;;22.50;61.77;101542.06;20982143;28;20116;-76
2022/10/28 16:11:40;;;;;;;29.20;12.80;;;;;;;22.50;61.74;101539.44;20988405;28;20044;-77
2022/10/28 16:21:43;;;;;;;35.92;13.75;;;;;;;22.57;61.93;101541.69;20982849;28;20086;-76
2022/10/28 16:31:49;;;;;;;31.17;13.93;;;;;;;22.58;61.90;101533.66;20982221;28;20028;-77
2022/10/28 16:41:56;;;;;;;34.20;13.23;;;;;;;22.60;61.45;101537.03;20968882;28;20055;-77
2022/10/28 16:51:56;;;;;;;28.25;12.43;;;;;;;22.63;61.53;101539.50;20969635;28;20044;-78
2022/10/28 17:01:59;;;;;;;51.35;31.35;;;;;;;22.67;61.83;101548.91;20972985;28;20036;-76
2022/10/28 17:12:00;;;;;;;62.53;37.97;;;;;;;22.71;62.22;101552.19;20996955;28;21536;-76
2022/10/28 17:22:00;;;;;;;68.70;46.60;;;;;;;22.76;62.13;101544.81;21009542;28;20039;-78
2022/10/28 17:32:01;;;;;;;81.28;55.58;;;;;;;22.79;62.47;101547.25;20998576;28;20045;-76
2022/10/28 17:42:02;;;;;;;78.15;54.60;;;;;;;22.78;62.81;101544.72;20991889;28;21621;-77
2022/10/28 17:52:02;;;;;;;72.10;51.67;;;;;;;22.80;61.85;101546.31;21000113;28;20498;-78
2022/10/28 18:02:03;;;;;;;66.60;50.60;;;;;;;22.80;61.78;101551.59;20995688;28;20483;-78
2022/10/28 18:12:05;;;;;;;71.03;47.88;;;;;;;22.76;62.03;101542.16;21007665;28;20044;-78
2022/10/28 18:22:05;;;;;;;;;;;;;;;22.75;61.86;101535.19;21013781;28;20129;-79
2022/10/28 18:32:06;;;;;;;62.03;43.03;;;;;;;22.73;62.19;101534.47;21024425;28;19924;-77
2022/10/28 18:42:06;;;;;;;57.43;39.67;;;;;;;22.70;62.12;101521.44;21022804;28;20028;-78
2022/10/28 18:52:07;;;;;;;55.53;40.28;;;;;;;22.67;62.25;101514.59;21009100;28;20288;-79
2022/10/28 19:02:10;;;;;;;49.90;36.38;;;;;;;22.68;62.09;101518.91;21000233;28;20039;-77
2022/10/28 19:12:10;;;;;;;47.97;35.38;;;;;;;22.69;62.08;101514.47;21007486;28;20047;-81
2022/10/28 19:22:11;;;;;;;48.17;34.63;;;;;;;22.68;61.93;101511.00;21003551;28;20032;-77
2022/10/28 19:32:12;;;;;;;48.13;33.30;;;;;;;22.70;62.05;101521.44;20994740;28;20044;-76
2022/10/28 19:42:12;;;;;;;45.55;31.77;;;;;;;22.74;62.49;101519.44;20970910;28;20040;-75
2022/10/28 19:52:12;;;;;;;42.80;30.05;;;;;;;22.76;62.33;101536.88;20975386;28;20384;-74
2022/10/28 20:02:13;;;;;;;45.65;28.88;;;;;;;22.71;62.65;101531.91;20950295;28;20102;-76
2022/10/28 20:12:13;;;;;;;43.70;30.40;;;;;;;22.74;62.08;101548.50;20967099;28;20071;-76
2022/10/28 20:22:15;;;;;;;43.42;28.92;;;;;;;22.71;62.23;101533.72;20969985;28;20099;-80
2022/10/28 20:32:21;;;;;;;35.65;26.45;;;;;;;22.61;61.82;101546.66;21000335;28;20045;-80
2022/10/28 20:42:22;;;;;;;39.97;28.42;;;;;;;22.58;62.06;101536.28;20994864;28;20055;-79
2022/10/28 20:52:22;;;;;;;34.95;25.98;;;;;;;22.58;62.07;101541.56;20993269;28;20040;-79
2022/10/28 21:02:23;;;;;;;39.40;26.92;;;;;;;22.51;62.13;101543.78;21007343;28;20062;-79
2022/10/28 21:12:24;;;;;;;39.38;26.33;;;;;;;22.47;61.97;101537.00;21004985;28;20158;-78
2022/10/28 21:22:25;;;;;;;33.28;24.55;;;;;;;22.46;62.16;101537.09;21007326;28;20040;-79
2022/10/28 21:32:26;;;;;;;31.58;23.90;;;;;;;22.39;62.36;101526.94;20988866;28;20098;-78
2022/10/28 21:42:26;;;;;;;35.75;24.75;;;;;;;22.35;62.39;101525.41;20990973;28;20040;-78
2022/10/28 21:52:27;;;;;;;31.55;22.98;;;;;;;22.34;62.45;101518.44;21000759;28;20043;-78
2022/10/28 22:02:28;;;;;;;30.55;22.35;;;;;;;22.32;62.30;101519.50;21007923;28;20048;-78
2022/10/28 22:12:28;;;;;;;30.63;22.08;;;;;;;22.31;62.40;101512.50;21001481;28;20050;-78
2022/10/28 22:22:30;;;;;;;31.70;22.52;;;;;;;22.26;62.45;101504.91;20983994;27;20112;-78
2022/10/28 22:32:30;;;;;;;31.95;21.48;;;;;;;22.22;62.44;101498.13;20991276;28;20044;-79
2022/10/28 22:42:30;;;;;;;28.23;21.15;;;;;;;22.21;62.42;101494.63;20981125;28;20036;-78
2022/10/28 22:52:33;;;;;;;28.60;19.85;;;;;;;22.20;62.45;101492.09;20993704;28;20070;-79
2022/10/28 23:02:33;;;;;;;28.02;20.33;;;;;;;22.17;62.53;101485.22;20998070;28;20058;-78
2022/10/28 23:12:34;;;;;;;26.42;19.67;;;;;;;22.15;62.56;101473.91;21001056;28;20052;-79
2022/10/28 23:22:35;;;;;;;26.77;18.95;;;;;;;22.14;62.38;101476.66;20995166;28;20238;-78
2022/10/28 23:32:37;;;;;;;26.52;18.58;;;;;;;22.13;62.60;101472.34;21007767;27;20066;-78
2022/10/28 23:42:37;;;;;;;26.13;18.67;;;;;;;22.10;62.61;101465.47;20991977;28;20071;-79
2022/10/28 23:52:37;;;;;;;23.48;17.75;;;;;;;22.11;62.35;101475.06;20993532;28;20036;-79
